Time;durP1;ratioP1;P1;durP2;ratioP2;P2;SDS_P1;SDS_P2;PMS_P1;PMS_P2;Temp;Humidity;BMP_temperature;BMP_pressure;BME280_temperature;BME280_humidity;BME280_pressure;Samples;Min_cycle;Max_cycle;Signal;HPM_P1;HPM_P2
2021/12/31 00:00:37;;;;;;;34.37;31.67;;;;;;;23.31;33.48;95598.50;4901160;28;102790;-52
2021/12/31 00:03:03;;;;;;;34.27;31.67;;;;;;;23.30;33.29;95600.38;4900662;28;103265;-51
2021/12/31 00:05:28;;;;;;;32.97;30.47;;;;;;;23.30;33.58;95599.59;4901339;28;102716;-51
2021/12/31 00:07:54;;;;;;;34.73;31.93;;;;;;;23.30;33.96;95595.06;4899111;28;103324;-51
2021/12/31 00:10:20;;;;;;;34.73;32.10;;;;;;;23.31;33.53;95596.63;4896939;28;103275;-51
2021/12/31 00:12:45;;;;;;;34.37;31.67;;;;;;;23.29;33.31;95601.47;4902686;28;103123;-51
2021/12/31 00:15:12;;;;;;;33.53;30.77;;;;;;;23.28;33.27;95599.88;4900968;28;102901;-51
2021/12/31 00:17:39;;;;;;;32.87;30.27;;;;;;;23.28;33.85;95597.22;4901066;28;102850;-51
2021/12/31 00:20:12;;;;;;;33.10;30.50;;;;;;;23.28;33.27;95612.44;4894710;28;103475;-51
2021/12/31 00:25:12;;;;;;;33.83;31.13;;;;;;;23.27;33.66;95619.63;4897789;28;102788;-51
2021/12/31 00:27:38;;;;;;;32.27;29.77;;;;;;;23.27;33.29;95616.97;4900838;28;102715;-51
2021/12/31 00:30:05;;;;;;;33.23;30.63;;;;;;;23.27;33.77;95613.50;4896290;28;102783;-52
2021/12/31 00:32:31;;;;;;;34.00;31.27;;;;;;;23.26;33.72;95610.06;4899939;28;102896;-51
2021/12/31 00:34:56;;;;;;;30.87;28.50;;;;;;;23.25;33.26;95611.13;4900127;28;102800;-51
2021/12/31 00:37:29;;;;;;;32.90;30.30;;;;;;;23.26;33.30;95617.25;4901673;28;103686;-51
2021/12/31 00:39:55;;;;;;;32.23;29.73;;;;;;;23.25;33.57;95613.81;4899357;28;103915;-51
2021/12/31 00:42:21;;;;;;;30.90;28.40;;;;;;;23.25;33.50;95615.69;4894735;28;103207;-51
2021/12/31 00:44:46;;;;;;;31.00;28.50;;;;;;;23.25;33.12;95629.00;4898375;28;103004;-51
2021/12/31 00:47:12;;;;;;;32.30;29.70;;;;;;;23.25;33.48;95629.81;4900150;28;102738;-51
2021/12/31 00:49:37;;;;;;;30.40;28.10;;;;;;;23.24;33.71;95622.09;4900068;28;102752;-51
2021/12/31 00:52:03;;;;;;;30.33;28.03;;;;;;;23.23;32.95;95621.31;4896172;28;103393;-51
2021/12/31 00:54:29;;;;;;;30.50;28.20;;;;;;;23.23;33.34;95618.66;4899293;28;103123;-51
2021/12/31 00:57:01;;;;;;;29.93;27.63;;;;;;;23.23;33.03;95607.19;4900815;28;103901;-52
2021/12/31 00:59:27;;;;;;;31.00;28.63;;;;;;;23.23;33.19;95596.53;4891758;28;103179;-52
2021/12/31 01:01:52;;;;;;;30.10;27.60;;;;;;;23.22;33.31;95592.28;4899909;28;103531;-51
2021/12/31 01:04:18;;;;;;;31.33;28.90;;;;;;;23.22;33.46;95597.63;4894377;28;102810;-51
2021/12/31 01:06:43;;;;;;;30.70;28.30;;;;;;;23.22;33.69;95597.63;4900837;28;102806;-52
2021/12/31 01:09:09;;;;;;;30.43;28.03;;;;;;;23.22;33.27;95601.06;4882234;28;102981;-51
2021/12/31 01:11:34;;;;;;;31.43;29.03;;;;;;;23.22;33.28;95602.94;4900058;28;102673;-51
2021/12/31 01:14:04;;;;;;;30.93;28.53;;;;;;;23.22;32.94;95602.94;4897832;28;102707;-51
2021/12/31 01:16:37;;;;;;;30.47;28.07;;;;;;;23.22;32.82;95601.06;4898228;28;102743;-51
2021/12/31 01:21:31;;;;;;;31.97;29.47;;;;;;;23.21;33.08;95601.38;4900145;28;102749;-52
2021/12/31 01:23:58;;;;;;;34.10;31.40;;;;;;;23.20;33.10;95597.91;4899264;28;102768;-51
2021/12/31 01:26:24;;;;;;;32.20;29.60;;;;;;;23.20;33.25;95610.44;4894609;28;102775;-51
2021/12/31 01:28:49;;;;;;;31.67;29.17;;;;;;;23.20;33.08;95611.25;4900234;28;102694;-51
2021/12/31 01:31:15;;;;;;;33.47;30.70;;;;;;;23.20;32.83;95618.44;4902390;28;103329;-51
2021/12/31 01:33:40;;;;;;;31.83;29.33;;;;;;;23.20;33.34;95621.91;4903557;28;102784;-51
2021/12/31 01:36:06;;;;;;;32.07;29.57;;;;;;;23.21;33.11;95620.81;4896046;28;102790;-51
2021/12/31 01:38:31;;;;;;;32.30;29.60;;;;;;;23.20;32.97;95623.78;4898645;28;102975;-51
2021/12/31 01:40:57;;;;;;;33.60;31.00;;;;;;;23.19;33.36;95620.31;4900140;28;103361;-51
2021/12/31 01:43:23;;;;;;;32.70;30.10;;;;;;;23.19;33.46;95624.88;4899605;28;102864;-51
2021/12/31 01:45:55;;;;;;;31.43;28.93;;;;;;;23.20;33.15;95615.78;4900322;28;102710;-52
2021/12/31 01:48:36;;;;;;;32.27;29.60;;;;;;;23.20;32.75;95611.25;4894125;28;103174;-51
2021/12/31 01:51:03;;;;;;;32.73;30.13;;;;;;;23.18;32.80;95613.41;4900086;28;102806;-52
2021/12/31 01:53:29;;;;;;;30.90;28.47;;;;;;;23.20;33.21;95623.78;4899551;28;102799;-52
2021/12/31 01:56:00;;;;;;;32.30;29.70;;;;;;;23.18;33.09;95629.41;4899725;28;102776;-51
2021/12/31 01:58:27;;;;;;;32.43;29.83;;;;;;;23.19;32.89;95635.53;4892013;28;102923;-51
2021/12/31 02:00:54;;;;;;;31.20;28.60;;;;;;;23.19;33.01;95651.53;4898406;28;103043;-51
2021/12/31 02:03:22;;;;;;;31.33;28.93;;;;;;;23.19;32.76;95646.19;4898515;28;102567;-51
2021/12/31 02:05:48;;;;;;;32.63;29.93;;;;;;;23.19;32.80;95654.19;4899473;28;104555;-51
2021/12/31 02:08:15;;;;;;;30.87;28.37;;;;;;;23.18;33.35;95647.25;4898942;28;102907;-51
2021/12/31 02:10:41;;;;;;;31.40;28.80;;;;;;;23.17;32.96;95635.00;4893898;28;102911;-51
2021/12/31 02:13:09;;;;;;;30.50;28.00;;;;;;;23.16;32.88;95628.88;4899122;28;102699;-51
2021/12/31 02:15:35;;;;;;;30.53;28.03;;;;;;;23.17;33.02;95635.78;4898949;28;102879;-52
2021/12/31 02:18:02;;;;;;;31.30;28.80;;;;;;;23.17;33.16;95645.66;4898799;28;102727;-51
2021/12/31 02:20:45;;;;;;;30.07;27.50;;;;;;;23.17;32.71;95641.13;4894338;28;103268;-51
2021/12/31 02:23:39;;;;;;;30.83;28.23;;;;;;;23.17;33.03;95649.13;4899150;28;102789;-51
2021/12/31 02:26:08;;;;;;;30.43;27.97;;;;;;;23.17;32.99;95651.00;4899545;28;102721;-51
2021/12/31 02:28:34;;;;;;;30.97;28.50;;;;;;;23.16;32.86;95652.06;4898397;28;102899;-51
2021/12/31 02:31:03;;;;;;;31.00;28.50;;;;;;;23.17;33.04;95651.00;4899058;28;102749;-51
2021/12/31 02:33:28;;;;;;;30.57;28.10;;;;;;;23.17;32.51;95651.00;4895288;28;102990;-51
2021/12/31 02:35:54;;;;;;;29.00;26.70;;;;;;;23.16;32.93;95652.88;4902812;28;102786;-52
2021/12/31 02:38:19;;;;;;;30.00;27.50;;;;;;;23.16;32.94;95646.75;4901868;28;102650;-51
2021/12/31 02:40:45;;;;;;;28.17;25.97;;;;;;;23.16;32.84;95646.75;4902556;28;102784;-51
2021/12/31 02:43:11;;;;;;;28.50;26.20;;;;;;;23.16;32.70;95641.41;4897470;28;102737;-51
2021/12/31 02:45:37;;;;;;;28.67;26.30;;;;;;;23.16;32.58;95638.75;4902348;28;102833;-51
2021/12/31 02:48:05;;;;;;;29.00;26.70;;;;;;;23.15;32.70;95647.81;4901584;28;102956;-51
2021/12/31 02:50:34;;;;;;;29.87;27.40;;;;;;;23.15;32.74;95655.81;4900812;28;102714;-51
2021/12/31 02:53:10;;;;;;;30.17;27.73;;;;;;;23.14;32.77;95657.69;4901193;28;102579;-51
2021/12/31 02:55:37;;;;;;;30.30;27.80;;;;;;;23.15;32.74;95661.16;4899938;28;102840;-51
2021/12/31 02:58:04;;;;;;;27.63;25.33;;;;;;;23.15;32.78;95658.50;4902462;28;102688;-51
2021/12/31 03:00:31;;;;;;;28.57;26.07;;;;;;;23.14;32.50;95671.03;4901773;28;103010;-51
2021/12/31 03:02:58;;;;;;;29.70;27.33;;;;;;;23.14;32.42;95673.69;4901610;28;102848;-51
2021/12/31 03:05:26;;;;;;;27.83;25.53;;;;;;;23.14;32.54;95675.56;4896956;28;104949;-51
2021/12/31 03:07:54;;;;;;;26.50;24.40;;;;;;;23.14;32.87;95673.69;4901376;28;102739;-51
2021/12/31 03:10:21;;;;;;;28.80;26.50;;;;;;;23.14;32.52;95673.69;4901694;28;103237;-51
2021/12/31 03:12:51;;;;;;;27.87;25.53;;;;;;;23.14;32.57;95680.91;4901563;28;102813;-51
2021/12/31 03:15:17;;;;;;;26.87;24.67;;;;;;;23.13;32.49;95680.09;4896424;28;102828;-51
2021/12/31 03:17:44;;;;;;;26.67;24.53;;;;;;;23.13;32.24;95682.78;4900860;28;102899;-51
2021/12/31 03:20:24;;;;;;;28.30;25.90;;;;;;;23.13;32.71;95690.78;4901407;28;103518;-51
2021/12/31 03:22:50;;;;;;;25.73;23.63;;;;;;;23.13;32.52;95693.44;4901079;28;102926;-51
2021/12/31 03:25:15;;;;;;;24.03;22.20;;;;;;;23.13;32.27;95708.63;4902102;28;102945;-51
2021/12/31 03:27:41;;;;;;;24.53;22.60;;;;;;;23.13;32.72;95700.63;4895424;28;102814;-51
2021/12/31 03:30:10;;;;;;;24.90;22.90;;;;;;;23.14;32.33;95702.22;4900545;28;103750;-52
2021/12/31 03:32:35;;;;;;;25.03;23.03;;;;;;;23.15;32.13;95703.81;4900532;28;103801;-51
2021/12/31 03:35:01;;;;;;;25.43;23.43;;;;;;;23.14;32.28;95694.22;4902103;28;102829;-52
2021/12/31 03:37:26;;;;;;;25.07;23.07;;;;;;;23.13;32.20;95696.09;4895813;28;103294;-52
2021/12/31 03:39:52;;;;;;;24.57;22.53;;;;;;;23.13;32.14;95714.75;4900921;28;103239;-52
2021/12/31 03:42:18;;;;;;;24.80;22.70;;;;;;;23.13;32.35;95708.63;4901496;28;102829;-51
2021/12/31 03:44:44;;;;;;;25.47;23.40;;;;;;;23.14;32.66;95700.34;4900164;28;102699;-51
2021/12/31 03:47:09;;;;;;;25.83;23.73;;;;;;;23.15;32.10;95712.59;4901684;28;103223;-51
2021/12/31 03:49:35;;;;;;;25.83;23.83;;;;;;;23.16;32.39;95714.19;4895830;28;102726;-51
2021/12/31 03:52:01;;;;;;;25.00;23.00;;;;;;;23.16;32.08;95711.50;4899960;28;102705;-51
2021/12/31 03:54:26;;;;;;;24.23;22.33;;;;;;;23.16;32.47;95718.72;4902014;28;103245;-51
2021/12/31 03:56:52;;;;;;;24.80;22.80;;;;;;;23.16;32.14;95724.06;4900959;28;102824;-51
2021/12/31 03:59:17;;;;;;;25.93;23.83;;;;;;;23.17;32.45;95722.97;4896596;28;103454;-51
2021/12/31 04:01:43;;;;;;;23.17;21.37;;;;;;;23.16;32.48;95714.19;4900658;28;102716;-51
2021/12/31 04:04:09;;;;;;;25.70;23.77;;;;;;;23.16;32.08;95724.84;4901623;28;102862;-51
2021/12/31 04:06:35;;;;;;;24.70;22.70;;;;;;;23.18;32.22;95724.53;4900331;28;102783;-51
2021/12/31 04:09:00;;;;;;;25.13;23.03;;;;;;;23.17;32.12;95718.44;4900820;28;103209;-51
2021/12/31 04:11:26;;;;;;;24.63;22.67;;;;;;;23.17;31.79;95712.31;4895662;28;103272;-51
2021/12/31 04:13:52;;;;;;;21.90;20.20;;;;;;;23.18;32.34;95713.88;4901117;28;103059;-51
2021/12/31 04:16:17;;;;;;;23.20;21.30;;;;;;;23.18;31.79;95713.88;4900078;28;102925;-51
2021/12/31 04:18:43;;;;;;;23.93;22.03;;;;;;;23.18;31.79;95717.38;4900832;28;103321;-51
2021/12/31 04:21:09;;;;;;;23.53;21.60;;;;;;;23.19;32.19;95712.84;4896624;28;103019;-52
2021/12/31 04:23:47;;;;;;;21.90;20.10;;;;;;;23.18;32.14;95711.22;4899645;28;102825;-52
2021/12/31 04:26:14;;;;;;;22.83;20.93;;;;;;;23.19;31.90;95702.97;4900439;28;103872;-52
2021/12/31 04:28:39;;;;;;;22.57;20.67;;;;;;;23.19;31.99;95710.16;4900508;28;103579;-52
2021/12/31 04:31:05;;;;;;;21.93;20.13;;;;;;;23.20;31.81;95706.41;4900419;28;103031;-52
2021/12/31 04:33:30;;;;;;;21.97;20.17;;;;;;;23.19;31.96;95710.97;4896610;28;102875;-52
2021/12/31 04:35:56;;;;;;;21.10;19.50;;;;;;;23.19;31.78;95718.16;4900584;28;102691;-52
2021/12/31 04:38:21;;;;;;;21.47;19.87;;;;;;;23.20;31.70;95714.41;4900417;28;102589;-52
2021/12/31 04:40:47;;;;;;;21.20;19.60;;;;;;;23.20;32.20;95714.41;4899849;28;102768;-51
2021/12/31 04:43:12;;;;;;;20.00;18.50;;;;;;;23.19;31.64;95710.97;4896075;28;102707;-51
2021/12/31 04:45:38;;;;;;;21.10;19.50;;;;;;;23.19;31.82;95726.16;4899170;28;102723;-51
2021/12/31 04:48:04;;;;;;;19.40;17.90;;;;;;;23.20;31.88;95728.53;4899512;28;103304;-51
2021/12/31 04:50:29;;;;;;;21.17;19.47;;;;;;;23.20;31.99;95730.41;4899425;28;102786;-51
2021/12/31 04:52:55;;;;;;;20.90;19.23;;;;;;;23.20;31.96;95725.88;4900224;28;102758;-51
2021/12/31 04:55:21;;;;;;;19.50;17.97;;;;;;;23.21;31.84;95729.31;4894949;28;105496;-51
2021/12/31 04:57:48;;;;;;;20.10;18.50;;;;;;;23.20;31.96;95727.75;4899472;28;102803;-52
2021/12/31 05:00:14;;;;;;;21.47;19.77;;;;;;;23.19;31.44;95729.63;4898170;28;102783;-51
2021/12/31 05:02:40;;;;;;;20.97;19.37;;;;;;;23.21;31.55;95729.31;4900451;28;102794;-51
2021/12/31 05:05:06;;;;;;;20.60;19.00;;;;;;;23.20;31.61;95725.88;4895909;28;102953;-51
2021/12/31 05:07:31;;;;;;;20.37;18.77;;;;;;;23.20;31.85;95720.53;4898923;28;103432;-51
2021/12/31 05:09:57;;;;;;;19.03;17.63;;;;;;;23.21;31.76;95726.66;4902505;28;102705;-51
2021/12/31 05:12:27;;;;;;;19.70;18.20;;;;;;;23.21;31.41;95738.13;4900315;28;102746;-51
2021/12/31 05:14:53;;;;;;;20.03;18.43;;;;;;;23.21;31.50;95732.00;4898343;28;102962;-51
2021/12/31 05:17:19;;;;;;;19.73;18.13;;;;;;;23.21;31.76;95740.00;4893823;28;102715;-51
2021/12/31 05:19:45;;;;;;;19.40;17.90;;;;;;;23.20;31.87;95736.53;4898841;28;102901;-51
2021/12/31 05:22:14;;;;;;;19.37;17.87;;;;;;;23.20;31.73;95741.88;4899841;28;102840;-51
2021/12/31 05:24:40;;;;;;;19.23;17.73;;;;;;;23.20;31.39;95733.06;4899665;28;102896;-52
2021/12/31 05:27:07;;;;;;;19.23;17.80;;;;;;;23.22;31.53;95736.25;4894519;28;102748;-52
2021/12/31 05:29:34;;;;;;;19.27;17.77;;;;;;;23.21;31.49;95732.00;4896812;28;102857;-52
2021/12/31 05:32:00;;;;;;;19.07;17.57;;;;;;;23.21;31.89;95734.66;4899872;28;103306;-52
2021/12/31 05:34:25;;;;;;;20.10;18.50;;;;;;;23.21;31.73;95737.31;4900782;28;102713;-51
2021/12/31 05:36:51;;;;;;;18.87;17.33;;;;;;;23.21;31.67;95738.13;4900561;28;103201;-52
2021/12/31 05:39:16;;;;;;;18.67;17.17;;;;;;;23.21;31.88;95737.31;4894628;28;103143;-51
2021/12/31 05:41:42;;;;;;;19.30;17.80;;;;;;;23.20;31.40;95739.19;4900573;28;102789;-51
2021/12/31 05:44:09;;;;;;;18.90;17.40;;;;;;;23.21;31.72;95734.66;4898478;28;103495;-51
2021/12/31 05:46:35;;;;;;;18.80;17.30;;;;;;;23.21;31.33;95742.66;4899172;28;102906;-51
2021/12/31 05:49:01;;;;;;;18.57;17.17;;;;;;;23.21;31.78;95743.44;4899258;28;102854;-51
2021/12/31 05:51:27;;;;;;;17.60;16.20;;;;;;;23.20;31.46;95735.75;4893905;28;103376;-51
2021/12/31 05:53:54;;;;;;;18.53;17.03;;;;;;;23.21;31.89;95746.13;4897630;28;103494;-51
2021/12/31 05:56:20;;;;;;;18.20;16.80;;;;;;;23.21;31.55;95746.13;4899361;28;103338;-51
2021/12/31 05:58:45;;;;;;;17.47;16.07;;;;;;;23.21;31.34;95748.00;4898797;28;102764;-52
2021/12/31 06:01:11;;;;;;;18.33;16.83;;;;;;;23.21;31.47;95753.31;4893615;28;102906;-52
2021/12/31 06:03:37;;;;;;;17.30;16.00;;;;;;;23.22;31.45;95763.69;4899260;28;103291;-52
2021/12/31 06:06:02;;;;;;;17.07;15.73;;;;;;;23.21;31.11;95766.66;4898623;28;102843;-52
2021/12/31 06:08:28;;;;;;;17.70;16.40;;;;;;;23.21;31.40;95767.44;4900116;28;102845;-52
2021/12/31 06:10:54;;;;;;;17.77;16.27;;;;;;;23.22;31.65;95763.69;4903316;28;102811;-52
2021/12/31 06:13:20;;;;;;;17.50;16.17;;;;;;;23.21;31.70;95766.66;4897120;28;102792;-51
2021/12/31 06:15:48;;;;;;;17.03;15.73;;;;;;;23.23;31.52;95772.47;4901738;28;102647;-51
2021/12/31 06:18:14;;;;;;;16.00;14.80;;;;;;;23.20;31.01;95767.72;4901185;28;102913;-51
2021/12/31 06:20:42;;;;;;;17.03;15.70;;;;;;;23.23;31.46;95769.81;4902809;28;102870;-52
2021/12/31 06:23:08;;;;;;;16.63;15.33;;;;;;;23.23;31.34;95769.81;4896551;28;103599;-51
2021/12/31 06:25:35;;;;;;;17.37;15.97;;;;;;;23.23;31.28;95773.28;4911412;28;102710;-51
2021/12/31 06:28:01;;;;;;;16.97;15.67;;;;;;;23.24;31.15;95766.06;4902896;28;102987;-51
2021/12/31 06:30:27;;;;;;;17.13;15.73;;;;;;;23.24;31.26;95776.72;4901795;28;102767;-51
2021/12/31 06:32:53;;;;;;;17.87;16.47;;;;;;;23.24;31.34;95776.72;4902198;28;103372;-51
2021/12/31 06:35:19;;;;;;;16.47;15.27;;;;;;;23.23;31.34;95786.59;4896805;28;103471;-51
2021/12/31 06:37:44;;;;;;;16.90;15.50;;;;;;;23.22;31.66;95774.34;4901623;28;102810;-52
2021/12/31 06:40:11;;;;;;;14.70;13.60;;;;;;;23.22;31.85;95789.56;4901731;28;102811;-52
2021/12/31 06:42:37;;;;;;;16.97;15.47;;;;;;;23.22;31.36;95790.34;4901131;28;102833;-52
2021/12/31 06:45:04;;;;;;;14.63;13.53;;;;;;;23.24;31.27;95793.53;4896992;28;102772;-52
2021/12/31 06:47:29;;;;;;;15.60;14.40;;;;;;;23.28;31.52;95799.84;4902776;28;103053;-52
2021/12/31 06:49:55;;;;;;;14.63;13.53;;;;;;;23.30;31.55;95803.03;4901809;28;103264;-52
2021/12/31 06:52:20;;;;;;;14.63;13.37;;;;;;;23.25;31.03;95795.09;4900205;28;103448;-53
2021/12/31 06:54:47;;;;;;;14.00;12.90;;;;;;;23.28;31.43;95793.72;4909719;28;103363;-52
2021/12/31 06:57:13;;;;;;;14.10;13.00;;;;;;;23.28;31.30;95794.53;4897875;28;103319;-53
2021/12/31 06:59:38;;;;;;;13.97;12.87;;;;;;;23.30;30.80;95794.22;4902482;28;102822;-53
2021/12/31 07:02:04;;;;;;;13.10;11.90;;;;;;;23.30;30.98;95796.91;4901950;28;102770;-53
2021/12/31 07:04:29;;;;;;;12.80;11.87;;;;;;;23.34;31.38;95788.03;4901892;28;103133;-53
2021/12/31 07:06:55;;;;;;;14.10;12.80;;;;;;;23.18;30.65;95793.84;4894492;28;102724;-52
2021/12/31 07:09:20;;;;;;;14.17;13.07;;;;;;;23.00;30.35;95792.75;4901814;28;102934;-52
2021/12/31 07:11:46;;;;;;;13.80;12.70;;;;;;;22.90;30.75;95798.25;4898522;28;102880;-52
2021/12/31 07:14:11;;;;;;;15.33;14.13;;;;;;;22.84;30.50;95805.47;4911855;28;103434;-53
2021/12/31 07:16:37;;;;;;;15.93;14.33;;;;;;;22.78;30.01;95806.59;4902115;28;103553;-53
2021/12/31 07:19:02;;;;;;;15.90;14.60;;;;;;;22.72;30.16;95810.41;4895421;28;104621;-52
2021/12/31 07:21:28;;;;;;;15.20;14.00;;;;;;;22.66;30.05;95819.53;4901825;28;103229;-52
2021/12/31 07:23:53;;;;;;;16.33;15.13;;;;;;;22.66;30.26;95808.88;4900871;28;103437;-53
2021/12/31 07:26:19;;;;;;;17.60;16.10;;;;;;;22.61;29.90;95806.28;4883692;28;104279;-52
2021/12/31 07:28:44;;;;;;;16.57;15.10;;;;;;;22.61;31.01;95806.28;4896486;28;102839;-53
2021/12/31 07:31:12;;;;;;;17.80;16.30;;;;;;;22.67;30.52;95799.78;4896996;28;102844;-54
2021/12/31 07:33:38;;;;;;;16.73;15.27;;;;;;;22.70;30.55;95799.25;4902268;28;102708;-55
2021/12/31 07:36:04;;;;;;;16.50;15.00;;;;;;;22.81;31.62;95798.03;4903601;28;103544;-55
2021/12/31 07:38:36;;;;;;;17.53;16.03;;;;;;;22.68;31.13;95799.53;4904778;28;103363;-56
2021/12/31 07:41:02;;;;;;;16.17;14.60;;;;;;;22.84;31.39;95799.38;4891177;28;103446;-55
2021/12/31 07:43:28;;;;;;;16.13;14.63;;;;;;;22.94;32.17;95800.03;4879350;28;103367;-55
2021/12/31 07:45:54;;;;;;;16.37;15.00;;;;;;;22.98;31.96;95802.91;4897191;28;103116;-54
2021/12/31 07:48:21;;;;;;;14.80;13.50;;;;;;;23.02;31.99;95795.97;4901230;28;103264;-55
2021/12/31 07:50:47;;;;;;;15.23;14.03;;;;;;;23.03;31.61;95805.53;4900114;28;103962;-55
2021/12/31 07:53:13;;;;;;;13.90;12.70;;;;;;;23.03;31.59;95806.34;4899729;28;102908;-55
2021/12/31 07:55:39;;;;;;;13.63;12.57;;;;;;;23.04;30.86;95810.59;4894951;28;103137;-55
2021/12/31 07:58:07;;;;;;;11.53;10.57;;;;;;;22.30;28.25;95803.13;4894400;28;102781;-55
2021/12/31 08:00:34;;;;;;;10.60;9.70;;;;;;;21.46;28.96;95810.44;4911042;28;103536;-54
2021/12/31 08:03:00;;;;;;;15.60;10.43;;;;;;;21.36;31.91;95813.19;4902173;28;103563;-53
2021/12/31 08:05:28;;;;;;;14.27;12.77;;;;;;;21.90;31.32;95813.84;4895597;28;102991;-53
2021/12/31 08:07:54;;;;;;;12.40;11.20;;;;;;;22.40;30.18;95805.69;4878929;28;102965;-53
2021/12/31 08:10:20;;;;;;;13.30;12.00;;;;;;;22.71;30.10;95817.63;4895890;28;103535;-53
2021/12/31 08:12:46;;;;;;;12.83;11.73;;;;;;;22.95;29.96;95817.63;4890041;28;103272;-53
2021/12/31 08:15:12;;;;;;;13.00;11.90;;;;;;;23.06;30.02;95808.41;4905943;28;102881;-53
2021/12/31 08:17:38;;;;;;;12.10;11.00;;;;;;;23.18;30.08;95815.19;4897710;28;103149;-52
2021/12/31 08:20:05;;;;;;;11.10;10.10;;;;;;;23.29;30.37;95808.66;4894590;28;104480;-53
2021/12/31 08:22:30;;;;;;;11.70;10.70;;;;;;;23.39;30.20;95822.63;4900877;28;103975;-54
2021/12/31 08:24:56;;;;;;;12.13;10.93;;;;;;;23.46;30.94;95821.47;4892523;28;103230;-54
2021/12/31 08:27:21;;;;;;;13.37;12.03;;;;;;;23.49;30.96;95811.00;4898613;28;103693;-52
2021/12/31 08:29:47;;;;;;;13.53;12.40;;;;;;;23.52;31.29;95810.47;4894857;28;102779;-52
2021/12/31 08:32:12;;;;;;;13.43;12.33;;;;;;;23.52;31.17;95815.81;4862080;28;103570;-52
2021/12/31 08:34:38;;;;;;;13.13;12.00;;;;;;;23.52;31.18;95804.34;4891875;28;102762;-52
2021/12/31 08:37:04;;;;;;;14.57;13.17;;;;;;;23.54;31.66;95808.28;4889520;28;103731;-54
2021/12/31 08:39:29;;;;;;;15.07;12.70;;;;;;;23.59;31.67;95802.13;4905671;28;103474;-53
2021/12/31 08:41:55;;;;;;;15.70;14.30;;;;;;;23.61;31.57;95794.63;4902421;28;104165;-53
2021/12/31 08:44:21;;;;;;;17.03;15.50;;;;;;;23.63;31.89;95795.09;4878459;28;103324;-53
2021/12/31 08:46:47;;;;;;;17.37;15.73;;;;;;;23.66;31.72;95794.53;4891379;28;102703;-51
2021/12/31 08:49:13;;;;;;;18.10;16.60;;;;;;;23.74;31.90;95796.53;4902108;28;103983;-51
2021/12/31 08:51:38;;;;;;;21.73;19.50;;;;;;;23.76;32.09;95791.72;4903013;28;103768;-53
2021/12/31 08:54:05;;;;;;;20.77;18.93;;;;;;;23.76;32.54;95788.25;4904635;28;103203;-52
2021/12/31 08:56:30;;;;;;;21.50;19.60;;;;;;;23.73;32.20;95788.84;4892234;28;103484;-52
2021/12/31 08:58:56;;;;;;;23.87;21.87;;;;;;;23.68;32.61;95785.16;4895272;28;103284;-53
2021/12/31 09:01:21;;;;;;;24.53;22.27;;;;;;;23.70;32.37;95787.53;4902826;28;103423;-53
2021/12/31 09:03:47;;;;;;;25.97;23.67;;;;;;;23.68;32.36;95774.50;4895211;28;103206;-53
2021/12/31 09:06:17;;;;;;;26.60;24.20;;;;;;;23.67;32.36;95774.75;4896608;28;102702;-53
2021/12/31 09:08:43;;;;;;;24.73;22.67;;;;;;;23.68;32.21;95773.69;4892266;28;103350;-52
2021/12/31 09:11:09;;;;;;;26.30;24.00;;;;;;;23.68;32.14;95763.81;4904176;28;102873;-52
2021/12/31 09:13:35;;;;;;;27.20;24.90;;;;;;;23.69;32.54;95768.06;4900906;28;103388;-52
2021/12/31 09:16:01;;;;;;;26.33;23.93;;;;;;;23.71;32.31;95762.44;4895283;28;102946;-52
2021/12/31 09:18:26;;;;;;;29.83;27.17;;;;;;;23.72;32.61;95765.91;4888598;28;103296;-52
2021/12/31 09:20:53;;;;;;;31.07;28.07;;;;;;;23.73;32.48;95762.94;4893875;28;102718;-52
2021/12/31 09:23:18;;;;;;;31.40;28.80;;;;;;;23.75;32.20;95762.66;4900267;28;103820;-52
2021/12/31 09:25:44;;;;;;;35.17;32.10;;;;;;;23.77;32.14;95757.81;4878087;28;103388;-52
2021/12/31 09:28:10;;;;;;;35.70;32.40;;;;;;;23.77;32.19;95757.81;4894970;28;102960;-51
2021/12/31 09:30:36;;;;;;;37.93;34.37;;;;;;;23.77;32.32;95763.94;4894286;28;102842;-52
2021/12/31 09:33:02;;;;;;;36.23;32.63;;;;;;;23.78;32.33;95760.19;4896391;28;103273;-51
2021/12/31 09:35:27;;;;;;;38.10;34.77;;;;;;;23.79;32.93;95769.78;4892926;28;103854;-52
2021/12/31 09:37:53;;;;;;;38.57;35.00;;;;;;;23.82;32.96;95766.50;4900249;28;103102;-53
2021/12/31 09:40:19;;;;;;;43.30;34.20;;;;;;;23.85;33.40;95763.28;4893775;28;102751;-53
2021/12/31 09:43:12;;;;;;;39.00;35.30;;;;;;;23.86;33.60;95743.53;4904227;28;102729;-54
2021/12/31 09:45:40;;;;;;;38.23;34.90;;;;;;;23.92;33.38;95744.22;4880032;28;103262;-53
2021/12/31 09:48:10;;;;;;;41.57;37.60;;;;;;;23.96;33.59;95746.00;4902746;28;103178;-54
2021/12/31 09:50:47;;;;;;;38.60;35.40;;;;;;;23.97;33.85;95741.44;4894171;28;103286;-54
2021/12/31 09:53:15;;;;;;;39.37;35.73;;;;;;;23.96;33.51;95740.66;4892055;28;102817;-54
2021/12/31 09:55:41;;;;;;;41.33;37.43;;;;;;;23.97;34.05;95741.44;5106513;23;103869;-53
2021/12/31 09:58:09;;;;;;;40.80;37.00;;;;;;;23.96;33.57;95735.31;4919289;28;103353;-53
2021/12/31 10:00:44;;;;;;;40.20;36.60;;;;;;;23.99;33.65;95732.06;4916972;28;102798;-53
2021/12/31 10:03:26;;;;;;;40.43;36.90;;;;;;;24.04;33.29;95730.41;4925928;28;103822;-53
2021/12/31 10:05:54;;;;;;;42.00;38.33;;;;;;;24.05;33.56;95729.31;4920668;28;103296;-54
2021/12/31 10:08:28;;;;;;;43.13;39.30;;;;;;;24.04;33.16;95730.41;4924505;28;103422;-54
2021/12/31 10:11:07;;;;;;;41.33;37.47;;;;;;;24.06;33.92;95726.34;4923171;28;104522;-53
2021/12/31 10:13:38;;;;;;;39.87;36.20;;;;;;;24.11;33.62;95715.56;4926125;28;102824;-53
2021/12/31 10:16:04;;;;;;;38.17;34.67;;;;;;;24.13;33.67;95708.03;4949371;28;102607;-53
2021/12/31 10:18:35;;;;;;;40.20;36.70;;;;;;;24.12;33.82;95703.78;4928840;28;103273;-54
2021/12/31 10:21:04;;;;;;;38.83;35.33;;;;;;;24.14;33.77;95703.50;4932912;28;103318;-54
2021/12/31 10:23:36;;;;;;;38.00;34.50;;;;;;;24.15;33.83;95699.75;4925946;28;103399;-53
2021/12/31 10:26:13;;;;;;;37.60;34.50;;;;;;;24.16;34.43;95702.13;4923144;28;103259;-53
2021/12/31 10:29:10;;;;;;;36.97;33.67;;;;;;;24.15;34.56;95689.84;4916650;28;103358;-53
2021/12/31 10:31:53;;;;;;;39.83;35.90;;;;;;;24.23;34.17;95685.72;4888067;28;103739;-53
2021/12/31 10:34:28;;;;;;;38.93;35.23;;;;;;;24.23;34.19;95678.50;4931362;28;102778;-53
2021/12/31 10:36:56;;;;;;;41.27;37.33;;;;;;;24.25;34.75;95686.22;4914409;28;102961;-53
2021/12/31 10:39:27;;;;;;;40.83;36.87;;;;;;;24.28;34.48;95680.25;4919624;28;103416;-52
2021/12/31 10:42:05;;;;;;;42.27;38.10;;;;;;;24.30;34.12;95668.22;4916720;28;103842;-52
2021/12/31 10:44:50;;;;;;;42.43;38.30;;;;;;;24.29;34.41;95669.31;4916239;28;102764;-53
2021/12/31 10:47:23;;;;;;;42.27;38.03;;;;;;;24.30;34.41;95659.41;4920460;28;103234;-54
2021/12/31 10:50:04;;;;;;;37.93;34.03;;;;;;;24.24;34.54;95657.91;4928025;28;104377;-53
2021/12/31 10:52:39;;;;;;;36.97;33.03;;;;;;;24.20;34.37;95652.41;4924555;28;103653;-53
2021/12/31 10:57:41;;;;;;;38.73;35.13;;;;;;;24.23;34.13;95651.78;4913661;28;102722;-53
2021/12/31 11:00:09;;;;;;;39.67;36.00;;;;;;;24.22;34.25;95657.44;4915770;28;103319;-54
2021/12/31 11:02:36;;;;;;;36.53;32.97;;;;;;;24.24;34.82;95649.91;4916095;28;103329;-53
2021/12/31 11:05:03;;;;;;;37.87;34.17;;;;;;;24.24;34.34;95661.38;4917006;28;103185;-53
2021/12/31 11:07:30;;;;;;;37.57;33.77;;;;;;;24.25;34.52;95659.50;4917408;28;102671;-54
2021/12/31 11:09:58;;;;;;;37.30;33.50;;;;;;;24.21;34.43;95661.97;4917570;28;103572;-54
2021/12/31 11:12:25;;;;;;;38.17;34.60;;;;;;;24.21;34.50;95655.84;4921854;28;103582;-54
2021/12/31 11:14:51;;;;;;;35.17;31.90;;;;;;;24.17;34.61;95663.66;4916009;28;103156;-54
2021/12/31 11:17:17;;;;;;;35.47;32.07;;;;;;;24.18;33.91;95662.56;4916368;28;103140;-54